createdAt,value
2019-05-11T00:00:49.371Z,5.53
2019-05-11T00:03:22.841Z,5.00
2019-05-11T00:05:54.235Z,4.87
2019-05-11T00:08:25.654Z,6.65
2019-05-11T00:10:56.945Z,6.37
2019-05-11T00:13:28.353Z,6.40
2019-05-11T00:15:59.695Z,5.95
2019-05-11T00:18:34.600Z,5.95
2019-05-11T00:23:36.384Z,6.22
2019-05-11T00:26:08.816Z,5.80
2019-05-11T00:28:40.275Z,5.75
2019-05-11T00:31:11.789Z,5.50
2019-05-11T00:33:43.177Z,5.72
2019-05-11T00:36:14.620Z,5.20
2019-05-11T00:38:46.013Z,6.12
2019-05-11T00:41:17.423Z,6.78
2019-05-11T00:43:48.869Z,6.90
2019-05-11T00:46:20.273Z,7.30
2019-05-11T00:48:51.774Z,7.75
2019-05-11T00:51:23.325Z,8.80
2019-05-11T00:53:54.805Z,9.23
2019-05-11T00:56:26.280Z,8.48
2019-05-11T00:58:57.671Z,8.40
2019-05-11T01:01:29.234Z,7.75
2019-05-11T01:04:00.741Z,7.90
2019-05-11T01:06:32.319Z,7.72
2019-05-11T01:09:04.712Z,7.40
2019-05-11T01:11:37.212Z,7.75
2019-05-11T01:14:08.735Z,7.78
2019-05-11T01:16:40.287Z,7.40
2019-05-11T01:19:11.819Z,7.15
2019-05-11T01:21:44.226Z,6.10
2019-05-11T01:24:15.595Z,7.00
2019-05-11T01:26:47.496Z,6.35
2019-05-11T01:29:18.885Z,6.92
2019-05-11T01:31:50.323Z,7.60
2019-05-11T01:34:21.839Z,8.40
2019-05-11T01:36:53.318Z,8.43
2019-05-11T01:39:24.760Z,9.60
2019-05-11T01:41:56.271Z,9.10
2019-05-11T01:44:27.712Z,8.95
2019-05-11T01:46:59.205Z,8.90
2019-05-11T01:49:31.782Z,9.68
2019-05-11T01:52:03.306Z,9.35
2019-05-11T01:54:36.917Z,10.13
2019-05-11T01:57:08.399Z,9.53
2019-05-11T01:59:39.979Z,10.05
2019-05-11T02:02:11.550Z,10.88
2019-05-11T02:04:43.101Z,10.20
2019-05-11T02:07:16.903Z,9.38
2019-05-11T02:09:48.396Z,9.38
2019-05-11T02:12:20.039Z,10.28
2019-05-11T02:14:51.529Z,9.80
2019-05-11T02:17:26.079Z,9.85
2019-05-11T02:19:57.678Z,9.20
2019-05-11T02:22:29.239Z,9.60
2019-05-11T02:25:01.899Z,9.58
2019-05-11T02:27:33.402Z,8.80
2019-05-11T02:30:07.253Z,8.90
2019-05-11T02:32:38.777Z,9.33
2019-05-11T02:35:10.412Z,9.58
2019-05-11T02:37:41.930Z,9.40
2019-05-11T02:40:14.330Z,8.63
2019-05-11T02:42:45.856Z,9.10
2019-05-11T02:45:20.200Z,8.18
2019-05-11T02:47:51.728Z,9.08
2019-05-11T02:50:23.260Z,8.60
2019-05-11T02:52:54.801Z,8.68
2019-05-11T02:55:26.309Z,8.38
2019-05-11T02:57:58.837Z,8.73
2019-05-11T03:00:38.858Z,10.15
2019-05-11T03:03:10.406Z,15.83
2019-05-11T03:05:41.935Z,16.42
2019-05-11T03:08:13.457Z,14.70
2019-05-11T03:10:45.001Z,10.43
2019-05-11T03:13:16.598Z,12.25
2019-05-11T03:15:48.274Z,11.38
2019-05-11T03:18:19.759Z,10.55
2019-05-11T03:20:51.265Z,10.30
2019-05-11T03:23:22.824Z,11.57
2019-05-11T03:25:55.357Z,9.53
2019-05-11T03:28:27.873Z,8.75
2019-05-11T03:31:00.306Z,8.15
2019-05-11T03:33:31.756Z,8.83
2019-05-11T03:36:03.235Z,8.43
2019-05-11T03:38:35.736Z,9.85
2019-05-11T03:41:07.217Z,9.65
2019-05-11T03:43:40.306Z,10.00
2019-05-11T03:46:12.901Z,8.73
2019-05-11T03:48:44.433Z,9.58
2019-05-11T03:51:15.952Z,10.50
2019-05-11T03:53:48.498Z,10.48
2019-05-11T03:56:19.924Z,10.00
2019-05-11T03:58:52.446Z,9.00
2019-05-11T04:01:23.930Z,9.10
2019-05-11T04:03:55.469Z,8.85
2019-05-11T04:06:27.113Z,7.55
2019-05-11T04:08:58.673Z,6.78
2019-05-11T04:11:30.078Z,6.28
2019-05-11T04:14:01.566Z,6.05
2019-05-11T04:16:32.958Z,5.75
2019-05-11T04:19:04.380Z,5.80
2019-05-11T04:21:35.926Z,5.67
2019-05-11T04:24:07.347Z,5.60
2019-05-11T04:26:38.780Z,5.60
2019-05-11T04:29:10.212Z,5.65
2019-05-11T04:31:41.626Z,5.95
2019-05-11T04:34:15.064Z,7.47
2019-05-11T04:36:46.492Z,7.30
2019-05-11T04:39:17.940Z,7.15
2019-05-11T04:41:49.371Z,7.60
2019-05-11T04:44:20.895Z,6.75
2019-05-11T04:46:52.301Z,7.35
2019-05-11T04:49:23.706Z,6.28
2019-05-11T04:51:55.276Z,6.90
2019-05-11T04:54:26.671Z,6.83
2019-05-11T04:56:58.226Z,7.17
2019-05-11T04:59:29.719Z,7.00
2019-05-11T05:02:01.123Z,6.90
2019-05-11T05:04:32.531Z,7.83
2019-05-11T05:07:05.432Z,7.15
2019-05-11T05:09:42.509Z,6.12
2019-05-11T05:12:14.139Z,7.72
2019-05-11T05:14:43.855Z,8.10
2019-05-11T05:17:15.365Z,8.23
2019-05-11T05:19:46.955Z,9.00
2019-05-11T05:22:18.457Z,9.75
2019-05-11T05:24:50.020Z,8.73
2019-05-11T05:27:21.526Z,8.25
2019-05-11T05:29:53.004Z,9.70
2019-05-11T05:32:24.520Z,10.48
2019-05-11T05:34:55.958Z,9.75
2019-05-11T05:37:28.448Z,10.55
2019-05-11T05:39:59.971Z,10.68
2019-05-11T05:42:31.528Z,8.95
2019-05-11T05:45:05.344Z,9.43
2019-05-11T05:47:37.898Z,8.03
2019-05-11T05:50:09.558Z,8.35
2019-05-11T05:52:42.211Z,8.35
2019-05-11T05:55:13.850Z,8.83
2019-05-11T05:57:45.377Z,7.60
2019-05-11T06:00:17.670Z,7.53
2019-05-11T06:02:49.139Z,7.72
2019-05-11T06:05:20.687Z,8.05
2019-05-11T06:07:52.211Z,7.90
2019-05-11T06:10:27.382Z,7.17
2019-05-11T06:12:58.883Z,10.28
2019-05-11T06:15:30.460Z,10.15
2019-05-11T06:18:02.982Z,11.75
2019-05-11T06:20:35.594Z,9.45
2019-05-11T06:23:07.105Z,8.38
2019-05-11T06:25:39.585Z,8.83
2019-05-11T06:28:12.167Z,8.35
2019-05-11T06:30:43.739Z,7.30
2019-05-11T06:33:15.267Z,7.45
2019-05-11T06:35:49.686Z,8.75
2019-05-11T06:38:29.674Z,8.45
2019-05-11T06:41:05.814Z,8.68
2019-05-11T06:43:39.965Z,8.68
2019-05-11T06:46:13.927Z,7.08
2019-05-11T06:48:55.048Z,8.40
2019-05-11T06:51:33.454Z,9.00
2019-05-11T06:54:09.989Z,8.15
2019-05-11T06:56:45.899Z,6.67
2019-05-11T06:59:19.851Z,6.30
2019-05-11T07:01:55.964Z,5.58
2019-05-11T07:04:35.035Z,5.15
2019-05-11T07:07:07.931Z,5.67
2019-05-11T07:09:39.326Z,4.95
2019-05-11T07:12:11.055Z,5.10
2019-05-11T07:14:42.600Z,4.40
2019-05-11T07:17:14.969Z,4.45
2019-05-11T07:19:47.810Z,3.65
2019-05-11T07:22:19.161Z,3.30
2019-05-11T07:24:50.585Z,3.90
2019-05-11T07:27:22.052Z,3.70
2019-05-11T07:29:54.508Z,2.98
2019-05-11T07:32:29.205Z,4.65
2019-05-11T07:35:00.494Z,2.87
2019-05-11T07:37:32.961Z,2.80
2019-05-11T07:40:05.513Z,3.02
2019-05-11T07:42:38.285Z,2.45
2019-05-11T07:45:11.137Z,2.75
2019-05-11T07:47:43.727Z,3.15
2019-05-11T07:50:17.913Z,2.60
2019-05-11T07:52:48.582Z,2.50
2019-05-11T07:55:21.005Z,2.40
2019-05-11T07:57:52.468Z,2.33
2019-05-11T08:00:23.910Z,2.20
2019-05-11T08:02:55.310Z,2.20
2019-05-11T08:05:28.504Z,2.30
2019-05-11T08:08:00.078Z,2.35
2019-05-11T08:10:31.567Z,2.25
2019-05-11T08:13:04.096Z,2.45
2019-05-11T08:15:35.556Z,19.20
2019-05-11T08:18:08.498Z,5.05
2019-05-11T08:20:40.491Z,2.00
2019-05-11T08:23:12.898Z,2.00
2019-05-11T08:25:45.334Z,2.60
2019-05-11T08:28:18.428Z,3.77
2019-05-11T08:30:51.021Z,1.87
2019-05-11T08:33:22.546Z,2.12
2019-05-11T08:35:54.047Z,2.67
2019-05-11T08:38:25.479Z,2.10
2019-05-11T08:40:59.078Z,2.10
2019-05-11T08:43:30.097Z,7.92
2019-05-11T08:46:01.656Z,2.52
2019-05-11T08:48:33.217Z,2.40
2019-05-11T08:51:04.652Z,2.20
2019-05-11T08:53:38.550Z,2.10
2019-05-11T08:56:13.026Z,2.45
2019-05-11T08:58:42.462Z,2.52
2019-05-11T09:01:14.013Z,2.22
2019-05-11T09:03:47.672Z,2.20
2019-05-11T09:06:18.506Z,2.20
2019-05-11T09:08:49.986Z,2.50
2019-05-11T09:11:21.407Z,2.20
2019-05-11T09:13:52.961Z,2.20
2019-05-11T09:16:24.365Z,2.65
2019-05-11T09:18:57.979Z,2.08
2019-05-11T09:21:30.431Z,2.70
2019-05-11T09:24:04.035Z,2.70
2019-05-11T09:26:39.668Z,3.52
2019-05-11T09:29:12.982Z,2.50
2019-05-11T09:31:44.500Z,2.83
2019-05-11T09:34:17.559Z,2.80
2019-05-11T09:36:50.121Z,3.00
2019-05-11T09:39:21.588Z,2.92
2019-05-11T09:41:53.109Z,3.10
2019-05-11T09:44:24.626Z,3.12
2019-05-11T09:46:59.778Z,3.08
2019-05-11T09:49:43.975Z,2.87
2019-05-11T09:52:02.382Z,2.72
2019-05-11T09:54:33.809Z,3.22
2019-05-11T09:57:08.363Z,3.05
2019-05-11T09:59:39.338Z,2.83
2019-05-11T10:02:10.756Z,2.72
2019-05-11T10:04:42.262Z,3.08
2019-05-11T10:07:14.828Z,3.05
2019-05-11T10:09:48.037Z,3.00
2019-05-11T10:12:20.518Z,3.17
2019-05-11T10:14:52.155Z,3.00
2019-05-11T10:17:23.605Z,3.20
2019-05-11T10:19:55.059Z,3.20
2019-05-11T10:22:27.928Z,3.27
2019-05-11T10:24:59.516Z,3.80
2019-05-11T10:27:30.981Z,3.83
2019-05-11T10:30:02.510Z,4.85
2019-05-11T10:32:34.301Z,4.70
2019-05-11T10:35:08.034Z,4.83
2019-05-11T10:37:40.738Z,5.42
2019-05-11T10:40:12.481Z,5.20
2019-05-11T10:42:43.972Z,5.50
2019-05-11T10:45:17.833Z,5.47
2019-05-11T10:47:49.154Z,5.28
2019-05-11T10:50:21.002Z,6.28
2019-05-11T10:52:53.532Z,6.25
2019-05-11T10:55:25.105Z,6.75
2019-05-11T10:57:58.087Z,7.15
2019-05-11T11:00:30.663Z,7.15
2019-05-11T11:03:02.316Z,6.92
2019-05-11T11:05:35.400Z,8.20
2019-05-11T11:08:08.354Z,9.10
2019-05-11T11:10:41.455Z,8.65
2019-05-11T11:13:13.060Z,9.23
2019-05-11T11:15:48.501Z,8.75
2019-05-11T11:18:19.771Z,9.80
2019-05-11T11:20:52.371Z,9.63
2019-05-11T11:23:24.985Z,9.60
2019-05-11T11:25:58.400Z,8.68
2019-05-11T11:28:31.968Z,8.75
2019-05-11T11:31:04.624Z,11.18
2019-05-11T11:33:38.953Z,11.53
2019-05-11T11:36:14.590Z,10.88
2019-05-11T11:38:47.841Z,11.75
2019-05-11T11:41:19.716Z,11.53
2019-05-11T11:43:52.212Z,10.98
2019-05-11T11:46:23.716Z,9.30
2019-05-11T11:48:55.261Z,8.40
2019-05-11T11:51:28.610Z,9.25
2019-05-11T11:54:01.430Z,8.15
2019-05-11T11:56:33.051Z,7.90
2019-05-11T11:59:04.493Z,8.05
2019-05-11T12:01:38.528Z,7.65
2019-05-11T12:04:09.448Z,13.05
2019-05-11T12:06:42.073Z,8.75
2019-05-11T12:09:13.679Z,8.60
2019-05-11T12:11:48.672Z,9.18
2019-05-11T12:14:20.578Z,7.47
2019-05-11T12:17:03.972Z,9.10
2019-05-11T12:19:27.716Z,8.75
2019-05-11T12:21:58.662Z,10.23
2019-05-11T12:24:30.207Z,9.83
2019-05-11T12:27:01.766Z,9.48
2019-05-11T12:29:33.350Z,9.28
2019-05-11T12:32:08.195Z,10.45
2019-05-11T12:34:39.943Z,8.90
2019-05-11T12:37:11.485Z,9.08
2019-05-11T12:39:43.007Z,9.50
2019-05-11T12:42:14.624Z,10.38
2019-05-11T12:44:48.164Z,10.72
2019-05-11T12:47:25.021Z,9.05
2019-05-11T12:49:54.819Z,9.45
2019-05-11T12:52:27.997Z,8.30
2019-05-11T12:54:59.761Z,9.13
2019-05-11T12:57:32.267Z,9.63
2019-05-11T13:00:08.836Z,10.10
2019-05-11T13:02:40.559Z,9.88
2019-05-11T13:05:13.302Z,9.05
2019-05-11T13:07:45.065Z,8.70
2019-05-11T13:10:17.880Z,9.33
2019-05-11T13:12:49.609Z,10.10
2019-05-11T13:15:21.320Z,12.40
2019-05-11T13:17:54.012Z,12.63
2019-05-11T13:20:25.603Z,14.95
2019-05-11T13:22:58.702Z,14.47
2019-05-11T13:25:30.564Z,12.88
2019-05-11T13:28:02.336Z,11.78
2019-05-11T13:30:33.864Z,12.30
2019-05-11T13:33:08.318Z,13.05
2019-05-11T13:35:39.150Z,14.20
2019-05-11T13:38:10.702Z,13.98
2019-05-11T13:40:43.283Z,12.43
2019-05-11T13:43:14.829Z,14.25
2019-05-11T13:45:47.927Z,14.30
2019-05-11T13:48:19.681Z,14.20
2019-05-11T13:50:51.381Z,16.17
2019-05-11T13:53:23.971Z,14.47
2019-05-11T13:55:58.692Z,16.75
2019-05-11T13:58:29.938Z,17.23
2019-05-11T14:01:01.684Z,20.75
2019-05-11T14:03:33.247Z,19.15
2019-05-11T14:06:04.955Z,18.85
2019-05-11T14:08:39.274Z,18.60
2019-05-11T14:11:11.869Z,16.93
2019-05-11T14:13:44.538Z,15.03
2019-05-11T14:16:17.902Z,15.65
2019-05-11T14:18:49.367Z,14.00
2019-05-11T14:21:20.900Z,15.25
2019-05-11T14:23:53.716Z,15.13
2019-05-11T14:26:25.408Z,19.23
2019-05-11T14:28:59.636Z,15.90
2019-05-11T14:31:31.612Z,13.38
2019-05-11T14:34:03.223Z,17.20
2019-05-11T14:36:34.726Z,11.48
2019-05-11T14:39:08.461Z,10.98
2019-05-11T14:41:40.352Z,13.98
2019-05-11T14:44:11.876Z,11.53
2019-05-11T14:46:44.504Z,11.88
2019-05-11T14:49:18.201Z,11.40
2019-05-11T14:51:49.398Z,12.13
2019-05-11T14:54:21.009Z,12.10
2019-05-11T14:56:52.622Z,12.10
2019-05-11T14:59:24.196Z,12.05
2019-05-11T15:01:58.371Z,11.25
2019-05-11T15:04:30.112Z,11.30
2019-05-11T15:07:01.659Z,11.73
2019-05-11T15:09:33.169Z,11.35
2019-05-11T15:12:04.681Z,11.25
2019-05-11T15:14:37.807Z,11.35
2019-05-11T15:17:09.614Z,9.78
2019-05-11T15:19:41.208Z,9.70
2019-05-11T15:22:12.844Z,10.23
2019-05-11T15:24:44.422Z,9.68
2019-05-11T15:27:18.400Z,8.35
2019-05-11T15:29:49.172Z,9.05
2019-05-11T15:32:20.758Z,8.98
2019-05-11T15:34:53.308Z,8.25
2019-05-11T15:37:24.761Z,8.33
2019-05-11T15:39:58.929Z,8.23
2019-05-11T15:42:30.646Z,8.60
2019-05-11T15:45:02.412Z,8.70
2019-05-11T15:47:34.223Z,8.53
2019-05-11T15:50:09.598Z,8.70
2019-05-11T15:52:41.070Z,8.23
2019-05-11T15:55:12.994Z,7.78
2019-05-11T15:57:44.500Z,7.50
2019-05-11T16:00:16.643Z,7.92
2019-05-11T16:02:49.061Z,7.70
2019-05-11T16:05:20.965Z,7.55
2019-05-11T16:07:53.602Z,7.80
2019-05-11T16:10:25.067Z,8.15
2019-05-11T16:12:58.594Z,8.05
2019-05-11T16:15:30.941Z,7.60
2019-05-11T16:18:02.376Z,9.40
2019-05-11T16:20:33.884Z,9.05
2019-05-11T16:23:05.426Z,9.88
2019-05-11T16:25:38.300Z,9.95
2019-05-11T16:28:11.213Z,9.65
2019-05-11T16:30:43.798Z,11.25
2019-05-11T16:33:15.320Z,10.95
2019-05-11T16:35:48.944Z,10.70
2019-05-11T16:38:20.108Z,11.08
2019-05-11T16:40:51.739Z,10.85
2019-05-11T16:43:23.257Z,11.15
2019-05-11T16:45:54.806Z,10.48
2019-05-11T16:48:27.703Z,9.63
2019-05-11T16:50:59.622Z,9.13
2019-05-11T16:53:31.168Z,11.83
2019-05-11T16:56:02.678Z,10.93
2019-05-11T16:58:34.226Z,9.95
2019-05-11T17:01:08.405Z,9.88
2019-05-11T17:03:39.067Z,11.50
2019-05-11T17:06:10.613Z,11.60
2019-05-11T17:08:42.136Z,9.85
2019-05-11T17:11:14.735Z,9.15
2019-05-11T17:13:48.259Z,9.55
2019-05-11T17:16:19.478Z,9.58
2019-05-11T17:18:51.012Z,9.90
2019-05-11T17:21:24.626Z,9.50
2019-05-11T17:23:57.955Z,10.58
2019-05-11T17:26:29.577Z,9.73
2019-05-11T17:29:01.262Z,10.23
2019-05-11T17:31:32.791Z,10.60
2019-05-11T17:34:04.420Z,11.53
2019-05-11T17:36:35.969Z,12.93
2019-05-11T17:39:08.163Z,12.63
2019-05-11T17:41:39.700Z,12.73
2019-05-11T17:44:12.170Z,12.88
2019-05-11T17:46:43.682Z,12.95
2019-05-11T17:51:42.980Z,12.65
2019-05-11T17:54:14.492Z,13.93
2019-05-11T17:56:48.218Z,13.80
2019-05-11T17:59:19.692Z,13.48
2019-05-11T18:01:52.288Z,13.08
2019-05-11T18:04:23.815Z,12.20
2019-05-11T18:06:55.329Z,12.25
2019-05-11T18:09:26.893Z,10.80
2019-05-11T18:11:58.647Z,10.55
2019-05-11T18:14:31.123Z,10.53
2019-05-11T18:17:02.844Z,10.18
2019-05-11T18:19:34.382Z,9.83
2019-05-11T18:22:08.303Z,9.30
2019-05-11T18:24:39.999Z,8.55
2019-05-11T18:27:11.453Z,8.93
2019-05-11T18:29:42.866Z,8.83
2019-05-11T18:32:14.373Z,9.10
2019-05-11T18:34:48.390Z,9.65
2019-05-11T18:37:20.343Z,9.08
2019-05-11T18:39:52.847Z,9.43
2019-05-11T18:42:24.560Z,10.28
2019-05-11T18:44:58.051Z,10.60
2019-05-11T18:47:29.984Z,10.53
2019-05-11T18:50:01.877Z,11.05
2019-05-11T18:52:33.401Z,11.85
2019-05-11T18:55:08.179Z,12.93
2019-05-11T18:57:39.218Z,12.40
2019-05-11T19:00:12.097Z,11.85
2019-05-11T19:02:45.722Z,14.20
2019-05-11T19:05:18.157Z,15.20
2019-05-11T19:07:51.419Z,13.98
2019-05-11T19:10:22.985Z,14.78
2019-05-11T19:12:54.421Z,14.28
2019-05-11T19:15:25.922Z,17.73
2019-05-11T19:17:58.055Z,14.18
2019-05-11T19:20:44.475Z,13.83
2019-05-11T19:23:04.021Z,13.43
2019-05-11T19:25:37.574Z,12.47
2019-05-11T19:28:10.244Z,12.47
2019-05-11T19:30:41.797Z,12.95
2019-05-11T19:33:13.334Z,11.25
2019-05-11T19:35:44.779Z,11.12
2019-05-11T19:38:16.224Z,13.03
2019-05-11T19:40:48.382Z,14.63
2019-05-11T19:43:20.080Z,14.70
2019-05-11T19:45:51.504Z,16.40
2019-05-11T19:48:23.014Z,17.10
2019-05-11T19:51:06.771Z,13.30
2019-05-11T19:53:28.882Z,13.95
2019-05-11T19:56:00.376Z,13.38
2019-05-11T19:58:31.887Z,13.58
2019-05-11T20:01:03.373Z,13.95
2019-05-11T20:03:34.986Z,13.18
2019-05-11T20:06:08.804Z,14.20
2019-05-11T20:08:39.770Z,13.70
2019-05-11T20:11:11.307Z,12.45
2019-05-11T20:13:42.819Z,11.93
2019-05-11T20:16:14.328Z,12.82
2019-05-11T20:18:45.838Z,12.07
2019-05-11T20:21:22.615Z,12.25
2019-05-11T20:23:50.588Z,11.38
2019-05-11T20:26:22.123Z,11.93
2019-05-11T20:28:53.630Z,12.50
2019-05-11T20:31:27.584Z,14.00
2019-05-11T20:33:58.512Z,12.43
2019-05-11T20:36:30.039Z,13.28
2019-05-11T20:39:01.550Z,12.25
2019-05-11T20:41:34.405Z,12.30
2019-05-11T20:44:06.032Z,12.30
2019-05-11T20:46:38.354Z,12.45
2019-05-11T20:49:10.128Z,14.20
2019-05-11T20:51:41.670Z,12.93
2019-05-11T20:54:13.202Z,13.13
2019-05-11T20:56:44.723Z,13.25
2019-05-11T20:59:18.165Z,13.30
2019-05-11T21:01:49.467Z,13.68
2019-05-11T21:04:20.968Z,14.10
2019-05-11T21:06:53.535Z,13.80
2019-05-11T21:09:25.033Z,14.15
2019-05-11T21:11:58.887Z,15.10
2019-05-11T21:14:29.692Z,14.95
2019-05-11T21:17:01.219Z,14.10
2019-05-11T21:19:32.743Z,14.87
2019-05-11T21:22:04.344Z,14.38
2019-05-11T21:24:35.855Z,14.73
2019-05-11T21:27:07.353Z,15.10
2019-05-11T21:29:38.893Z,14.53
2019-05-11T21:32:10.428Z,15.78
2019-05-11T21:34:41.890Z,15.80
2019-05-11T21:37:13.386Z,16.82
2019-05-11T21:39:44.821Z,17.17
2019-05-11T21:42:18.149Z,18.48
2019-05-11T21:44:49.811Z,18.45
2019-05-11T21:47:21.339Z,19.80
2019-05-11T21:49:52.854Z,18.07
2019-05-11T21:52:24.404Z,19.50
2019-05-11T21:54:58.189Z,19.50
2019-05-11T21:57:29.170Z,19.17
2019-05-11T22:00:00.792Z,18.92
2019-05-11T22:02:32.409Z,19.12
2019-05-11T22:05:04.779Z,18.92
2019-05-11T22:07:38.738Z,19.27
2019-05-11T22:10:10.408Z,20.23
2019-05-11T22:12:42.069Z,21.62
2019-05-11T22:15:13.792Z,21.20
2019-05-11T22:17:45.290Z,20.70
2019-05-11T22:20:18.372Z,20.15
2019-05-11T22:22:50.088Z,22.13
2019-05-11T22:25:21.604Z,22.60
2019-05-11T22:27:53.047Z,25.48
2019-05-11T22:30:24.569Z,26.48
2019-05-11T22:32:58.129Z,25.20
2019-05-11T22:35:29.462Z,25.37
2019-05-11T22:38:01.923Z,26.35
2019-05-11T22:40:33.884Z,27.27
2019-05-11T22:43:06.034Z,27.20
2019-05-11T22:45:38.370Z,27.15
2019-05-11T22:48:11.039Z,28.67
2019-05-11T22:50:43.776Z,30.23
2019-05-11T22:53:15.462Z,33.20
2019-05-11T22:55:48.534Z,32.55
2019-05-11T22:58:20.072Z,35.25
2019-05-11T23:00:52.556Z,31.15
2019-05-11T23:03:23.986Z,35.70
2019-05-11T23:05:58.166Z,35.70
2019-05-11T23:08:29.825Z,37.63
2019-05-11T23:11:01.544Z,38.73
2019-05-11T23:13:33.069Z,40.95
2019-05-11T23:16:04.694Z,40.92
2019-05-11T23:18:38.847Z,41.83
2019-05-11T23:21:09.419Z,38.80
2019-05-11T23:23:40.959Z,35.88
2019-05-11T23:26:12.352Z,38.80
2019-05-11T23:28:43.850Z,38.33
2019-05-11T23:31:15.362Z,38.73
2019-05-11T23:33:46.860Z,37.30
2019-05-11T23:36:18.372Z,36.28
2019-05-11T23:38:49.818Z,36.35
2019-05-11T23:41:24.511Z,35.43
2019-05-11T23:43:54.574Z,33.90
2019-05-11T23:46:28.210Z,31.37
2019-05-11T23:48:59.267Z,31.95
2019-05-11T23:51:30.758Z,32.93
2019-05-11T23:54:02.312Z,33.13
2019-05-11T23:56:33.847Z,33.35
2019-05-11T23:59:05.356Z,33.02
